Česky Dansk Deutsch English Español Suomi Français Magyar Italiano Nederlands norsk Polski Português svenska Türkçe

 

Het Weer

Kaunas (Litouwen)

14:50, 21 augustus 2016 (GMT)

NWNNE
WE
SWSSE
Home            
Kaunas Vilnius Siauliai Intl./Mil. Grodno Palanga Intl. Kaliningrad/Khrabrovo Airport Riga International Airport Riga Liepaja International Airport Loshitsa / Minsk International 1 Minsk Brest Ventspils Gdansk-Rebiechowo Warszawa-Okecie Kuressaare Parnu Vitebsk Tartu/Ulenurme Slupsk Velikie Luki Kardla Visby Flygplats

Om een weerknop op uw website of weblog te plaatsen, copieer onderstaande code en plak die in uw pagina. In het eerste vakje staat HTML-code, in het tweede vakje UBB-code.


Add to Google

Details

Wind speed:3 bf, 8 kn, 4.1 m/s, 9.2 miles/h, 14.8 km/h
Wind direction:ESE, 120°
Visibility:Greater than 10000 m, 10 km, 32800 ft, 6.2 miles
Clouds:CAVOC
Temperature:26°C, 79°F
Gefühlte Temperatur:27°C, 80°F
Dew-point:16°C, 61°F
Atmospheric pressure:1016 hPa, 762.1 mmHg, 30.00 inHg, 1.003 atm
Relative humidity:54.1 %
METAR:EYKA 211450Z 12008KT CAVOK 26/16 Q1016

Snelkoppelingen

Actuele weersinformatie van de hele wereld. Voeg locaties toe met het plus (+) symbool. Deze snelkoppelingen kunnen worden toegevoegd aan Google.

Lid van de Technetium groep

website free tracking
StatCounter NetStat W3C Validator

24-11-2020 01:28:03
astro.technetium.be money.technetium.be phote.technetium.be tafeltennistafel.technetium.be www.ligfiets.net